Sao Vicente, Brazil
Current Conditions -  °F | °C
As of 1:00 PM on Thursday 30 Oct 2014 (Local Time) from SBKG Reporting Station
Scattered Clouds Scattered Clouds  
Wind Chill: 86°   Ceiling: Unl
Heat Index: 86°   Visibility: 6mi
Dew Point: 61°   Wind: 16mph
Humidity: 43%   Direction: 130°SE
Pressure: 29.97"   Gusts: NA
Location:  6.22°S, 36.68°W
Report Text: SBKG 301600Z 13014KT 9999 SCT040 30/16 Q1015
Loading
Personal Weather Stations






























Interactive Weather Map
Tropical Storm Tracking
New forecast layout! Learn more

10-Day Weather Forecast

Advertisements
Track Severe Weather on mobile